KCKV/CKV METAR and TAF weather

Enter ICAO airport designator
Station Type Date Time Source
KCKV METAR 2020/02/20 23:52 UTC NOAA

KCKV 202352Z AUTO 36010KT 10SM CLR 02/M06 A3051 RMK AO2 SLP334 T00221056 10067 20022 53015


Station Type Date Time Source
KCKV Decoded METAR 2020/02/20 23:52 UTC NOAA

CLARKSVILLE OUTLAW FIELD, TN, United States (KCKV) 36-37N 87-25W 165M
Feb 20, 2020 - 06:52 PM EST / 2020.02.20 2352 UTC
Wind: from the N (360 degrees) at 12 MPH (10 KT):0
Visibility: 10 mile(s):0
Sky conditions: clear
Temperature: 36.0 F (2.2 C)
Dew Point: 21.9 F (-5.6 C)
Relative Humidity: 56%
Pressure (altimeter): 30.51 in. Hg (1033 hPa)
Pressure tendency: 0.04 inches (1.5 hPa) higher than three hours ago
ob: KCKV 202352Z AUTO 36010KT 10SM CLR 02/M06 A3051 RMK AO2 SLP334 T00221056 10067 20022 53015
cycle: 0

Station Type Date Time Source
KCKV TAF 2020/02/20 17:24 UTC NOAA

TAF
AMD KCKV 201722Z 2017/2118 02012G18KT P6SM BKN090
FM202000 01013G22KT P6SM SCT200
FM202300 36011G17KT P6SM SCT250
FM210400 36009G15KT P6SM FEW150
FM210600 01008KT P6SM SKC

Example: see airport list